Time;durP1;ratioP1;P1;durP2;ratioP2;P2;SDS_P1;SDS_P2;PMS_P1;PMS_P2;Temp;Humidity;BMP_temperature;BMP_pressure;BME280_temperature;BME280_humidity;BME280_pressure;Samples;Min_cycle;Max_cycle;Signal;HPM_P1;HPM_P2
2023/10/10 00:01:03;;;;;;;23.33;13.38;;;12.90;99.90;;;;;;5071914;28;20029;-65
2023/10/10 00:03:31;;;;;;;26.23;13.27;;;12.90;99.90;;;;;;5069247;28;20020;-65
2023/10/10 00:06:06;;;;;;;27.75;13.88;;;12.80;99.90;;;;;;5067727;28;20326;-66
2023/10/10 00:08:36;;;;;;;30.25;13.98;;;12.80;99.90;;;;;;5063049;28;20100;-65
2023/10/10 00:11:16;;;;;;;25.67;12.35;;;12.80;99.90;;;;;;5039013;28;20523;-65
2023/10/10 00:13:42;;;;;;;25.48;11.73;;;12.80;99.90;;;;;;5062958;28;20036;-66
2023/10/10 00:16:35;;;;;;;29.67;12.43;;;12.80;99.90;;;;;;5064328;28;20016;-65
2023/10/10 00:19:28;;;;;;;26.33;12.82;;;12.80;99.90;;;;;;5065111;28;20025;-65
2023/10/10 00:21:54;;;;;;;23.13;11.43;;;12.80;99.90;;;;;;5064461;28;20540;-66
2023/10/10 00:24:20;;;;;;;26.35;11.75;;;12.70;99.90;;;;;;5068006;28;20112;-65
2023/10/10 00:26:49;;;;;;;23.50;12.50;;;12.70;99.90;;;;;;5067907;28;20032;-65
2023/10/10 00:29:18;;;;;;;26.50;12.40;;;12.70;99.90;;;;;;5072016;28;20352;-69
2023/10/10 00:31:47;;;;;;;25.08;12.18;;;12.60;99.90;;;;;;5071769;28;20029;-64
2023/10/10 00:34:16;;;;;;;24.70;10.75;;;12.70;99.90;;;;;;5071728;28;20603;-65
2023/10/10 00:36:41;;;;;;;22.60;10.48;;;12.60;99.90;;;;;;5065224;28;20033;-68
2023/10/10 00:44:18;;;;;;;19.33;10.18;;;12.50;99.90;;;;;;5070817;28;20024;-68
2023/10/10 00:46:54;;;;;;;21.95;10.00;;;12.50;99.90;;;;;;5068146;28;20035;-67
2023/10/10 00:49:24;;;;;;;21.88;10.55;;;12.50;99.90;;;;;;5072861;28;20032;-68
2023/10/10 00:52:01;;;;;;;21.50;10.50;;;12.50;99.90;;;;;;5088034;28;20029;-67
2023/10/10 00:54:31;;;;;;;20.73;11.27;;;12.50;99.90;;;;;;5071948;28;20017;-67
2023/10/10 00:56:59;;;;;;;20.92;9.18;;;12.50;99.90;;;;;;5071250;28;20048;-69
2023/10/10 00:59:45;;;;;;;20.67;10.38;;;12.40;99.90;;;;;;5070489;28;20029;-67
2023/10/10 01:02:16;;;;;;;19.40;10.93;;;12.40;99.90;;;;;;5071765;28;20515;-67
2023/10/10 01:04:49;;;;;;;25.70;11.40;;;12.40;99.90;;;;;;5088245;28;20049;-67
2023/10/10 01:07:19;;;;;;;22.08;11.10;;;12.40;99.90;;;;;;5068888;28;20051;-67
2023/10/10 01:12:28;;;;;;;16.73;10.75;;;12.40;99.90;;;;;;5071419;28;20078;-66
2023/10/10 01:14:55;;;;;;;30.17;10.95;;;12.40;99.90;;;;;;5071920;28;20030;-67
2023/10/10 01:17:28;;;;;;;20.17;10.45;;;12.30;99.90;;;;;;5070308;28;20099;-67
2023/10/10 01:19:55;;;;;;;20.70;10.68;;;12.30;99.90;;;;;;5087075;28;20497;-68
2023/10/10 01:22:37;;;;;;;18.88;10.15;;;12.30;99.90;;;;;;5051286;28;20048;-67
2023/10/10 01:25:14;;;;;;;22.30;11.73;;;12.30;99.90;;;;;;5082638;28;20111;-67
2023/10/10 01:27:43;;;;;;;27.85;11.48;;;12.30;99.90;;;;;;5082380;28;20059;-67
2023/10/10 01:30:18;;;;;;;23.40;10.65;;;12.30;99.90;;;;;;5071197;28;20052;-67
2023/10/10 01:32:50;;;;;;;20.00;10.98;;;12.30;99.90;;;;;;5066319;28;20036;-65
2023/10/10 01:35:16;;;;;;;20.33;10.98;;;12.20;99.90;;;;;;5063631;28;20435;-65
2023/10/10 01:37:48;;;;;;;22.50;10.23;;;12.20;99.90;;;;;;5070205;28;20401;-66
2023/10/10 01:42:45;;;;;;;28.85;11.85;;;12.20;99.90;;;;;;5067923;28;20035;-66
2023/10/10 01:45:17;;;;;;;23.48;11.43;;;12.30;99.90;;;;;;5085146;28;20064;-65
2023/10/10 01:47:56;;;;;;;23.92;12.07;;;12.20;99.90;;;;;;5067451;28;20146;-65
2023/10/10 01:50:22;;;;;;;23.20;10.60;;;12.20;99.90;;;;;;5065953;28;20058;-65
2023/10/10 01:52:49;;;;;;;24.25;11.20;;;12.10;99.90;;;;;;5065027;28;20074;-66
2023/10/10 01:55:17;;;;;;;22.65;11.85;;;12.10;99.90;;;;;;5064745;28;20033;-66
2023/10/10 01:57:42;;;;;;;21.58;11.45;;;12.10;99.90;;;;;;5069513;28;20044;-66
2023/10/10 02:00:21;;;;;;;25.83;11.43;;;12.10;99.90;;;;;;5066866;28;20489;-66
2023/10/10 02:02:49;;;;;;;23.23;9.88;;;12.10;99.90;;;;;;5081207;28;20112;-66
2023/10/10 02:05:32;;;;;;;18.73;10.77;;;12.10;99.90;;;;;;5068014;28;20027;-65
2023/10/10 02:07:58;;;;;;;23.42;10.68;;;12.10;99.90;;;;;;5065099;28;20033;-65
2023/10/10 02:10:30;;;;;;;29.35;10.88;;;12.20;99.90;;;;;;5063409;28;20397;-65
2023/10/10 02:12:59;;;;;;;19.63;9.68;;;12.20;99.90;;;;;;5068838;28;20112;-65
2023/10/10 02:15:32;;;;;;;21.50;10.38;;;12.10;99.90;;;;;;5066844;28;20020;-66
2023/10/10 02:18:04;;;;;;;29.92;13.10;;;12.10;99.90;;;;;;5062002;28;20031;-65
2023/10/10 02:20:33;;;;;;;27.05;14.13;;;12.10;99.90;;;;;;5079164;28;20032;-65
2023/10/10 02:25:40;;;;;;;28.77;14.15;;;12.20;99.90;;;;;;5066944;28;20107;-66
2023/10/10 02:28:19;;;;;;;32.45;16.95;;;12.20;99.90;;;;;;5068543;28;20024;-65
2023/10/10 02:30:49;;;;;;;33.22;16.60;;;12.30;99.90;;;;;;5066274;28;20100;-65
2023/10/10 02:33:22;;;;;;;34.85;15.88;;;12.40;99.90;;;;;;5070112;28;20036;-66
2023/10/10 02:35:59;;;;;;;29.95;15.95;;;12.40;99.90;;;;;;5067787;28;20024;-65
2023/10/10 02:38:33;;;;;;;28.85;14.25;;;12.40;99.90;;;;;;5068147;28;20032;-67
2023/10/10 02:43:56;;;;;;;27.70;15.05;;;12.40;99.90;;;;;;5068340;28;20041;-65
2023/10/10 02:46:53;;;;;;;23.88;13.70;;;12.30;99.90;;;;;;5058094;28;20025;-66
2023/10/10 02:49:29;;;;;;;24.27;12.98;;;12.30;99.90;;;;;;5068224;28;20024;-65
2023/10/10 02:51:56;;;;;;;26.98;13.00;;;12.30;99.90;;;;;;5065726;28;20094;-65
2023/10/10 02:56:57;;;;;;;31.08;14.48;;;12.20;99.90;;;;;;5068489;28;20119;-65
2023/10/10 02:59:38;;;;;;;28.38;16.55;;;12.20;99.90;;;;;;5068404;28;20070;-65
2023/10/10 03:02:18;;;;;;;28.77;15.55;;;12.20;99.90;;;;;;5065495;28;20070;-66
2023/10/10 03:05:06;;;;;;;34.33;16.48;;;12.20;99.90;;;;;;5065077;28;20342;-65
2023/10/10 03:07:33;;;;;;;38.75;18.42;;;12.20;99.90;;;;;;5068941;28;20020;-65
2023/10/10 03:12:37;;;;;;;39.17;20.67;;;12.20;99.90;;;;;;5062614;28;20028;-65
2023/10/10 03:15:13;;;;;;;40.28;19.95;;;12.20;99.90;;;;;;5068702;28;20031;-66
2023/10/10 03:25:46;;;;;;;36.05;16.88;;;12.00;99.90;;;;;;5046547;28;20556;-65
2023/10/10 05:23:29;;;;;;;53.42;21.75;;;11.80;99.90;;;;;;5071585;28;20151;-65
2023/10/10 05:25:31;;;;;;;;;;;11.40;99.90;;;;;;5068779;28;20083;-65
2023/10/10 05:27:58;;;;;;;64.15;27.50;;;11.40;99.90;;;;;;5062903;28;20366;-66
2023/10/10 05:30:25;;;;;;;65.32;29.17;;;11.40;99.90;;;;;;5068744;28;20486;-66
2023/10/10 05:33:02;;;;;;;54.55;25.80;;;11.40;99.90;;;;;;5066415;28;20074;-65
2023/10/10 05:35:34;;;;;;;68.63;27.38;;;11.40;99.90;;;;;;5069780;28;20547;-65
2023/10/10 05:38:00;;;;;;;74.85;27.38;;;11.40;99.90;;;;;;5066113;28;20455;-66
2023/10/10 05:40:27;;;;;;;65.75;28.10;;;11.40;99.90;;;;;;5068074;28;20033;-66
2023/10/10 05:42:53;;;;;;;59.85;26.42;;;11.40;99.90;;;;;;5066143;28;20040;-66
2023/10/10 05:45:20;;;;;;;58.80;27.45;;;11.40;99.90;;;;;;5070301;28;20021;-65
2023/10/10 05:47:46;;;;;;;60.25;27.35;;;11.40;99.90;;;;;;5068344;28;20077;-65
2023/10/10 05:50:13;;;;;;;57.80;25.95;;;11.40;99.90;;;;;;5071484;28;20393;-65
2023/10/10 05:52:39;;;;;;;65.55;29.23;;;11.40;99.90;;;;;;5067605;28;20028;-65
2023/10/10 05:55:06;;;;;;;70.07;27.70;;;11.50;99.90;;;;;;5064659;28;20020;-65
2023/10/10 05:57:34;;;;;;;67.47;27.63;;;11.50;99.90;;;;;;5068052;28;20510;-66
2023/10/10 05:59:59;;;;;;;74.07;29.65;;;11.60;99.90;;;;;;5071550;28;20081;-65
2023/10/10 06:02:27;;;;;;;65.72;27.10;;;11.60;99.90;;;;;;5070085;28;20021;-66
2023/10/10 06:04:53;;;;;;;61.60;28.40;;;11.60;99.90;;;;;;5051537;28;20079;-66
2023/10/10 06:07:20;;;;;;;73.93;29.95;;;11.70;99.90;;;;;;5067800;28;20424;-66
2023/10/10 06:09:48;;;;;;;67.63;30.30;;;11.80;99.90;;;;;;5069661;28;20025;-66
2023/10/10 06:12:15;;;;;;;69.70;28.48;;;11.80;99.90;;;;;;5067055;28;20090;-66
2023/10/10 06:14:42;;;;;;;66.10;28.98;;;11.90;99.90;;;;;;5069711;28;20033;-66
2023/10/10 06:17:08;;;;;;;60.40;25.52;;;11.90;99.90;;;;;;5066711;28;20032;-65
2023/10/10 06:19:34;;;;;;;66.72;26.38;;;12.00;99.90;;;;;;5065568;28;20517;-65
2023/10/10 06:22:02;;;;;;;63.45;25.83;;;12.10;99.90;;;;;;5069422;28;20107;-66
2023/10/10 06:24:28;;;;;;;54.15;23.98;;;12.20;99.90;;;;;;5068477;28;20106;-66
2023/10/10 06:27:00;;;;;;;58.28;23.67;;;12.20;99.90;;;;;;5067002;28;20070;-66
2023/10/10 06:29:29;;;;;;;47.33;21.98;;;12.20;99.90;;;;;;5068298;28;20047;-66
2023/10/10 06:31:56;;;;;;;46.38;21.02;;;12.40;99.90;;;;;;5069456;28;20028;-66
2023/10/10 06:34:23;;;;;;;36.47;18.13;;;12.50;99.90;;;;;;5066260;28;20114;-66
2023/10/10 06:36:50;;;;;;;34.28;18.73;;;12.50;99.90;;;;;;5086691;28;20017;-66
2023/10/10 06:41:46;;;;;;;32.88;16.85;;;12.60;99.90;;;;;;5064707;28;20456;-66
2023/10/10 06:44:17;;;;;;;33.70;16.65;;;12.70;99.90;;;;;;5068404;28;20618;-67
2023/10/10 06:46:48;;;;;;;31.65;16.55;;;12.80;99.90;;;;;;5063660;28;20032;-67
2023/10/10 06:49:14;;;;;;;34.53;15.93;;;12.90;99.90;;;;;;5067410;28;20548;-67
2023/10/10 06:51:40;;;;;;;28.50;14.05;;;13.10;99.90;;;;;;5069966;28;20028;-66
2023/10/10 06:54:27;;;;;;;29.05;13.95;;;13.20;99.90;;;;;;5063717;28;20025;-70
2023/10/10 06:59:28;;;;;;;22.33;12.18;;;13.40;99.90;;;;;;5070358;28;20025;-66
2023/10/10 07:01:59;;;;;;;22.55;13.07;;;13.60;99.90;;;;;;5071688;28;20036;-66
2023/10/10 07:04:27;;;;;;;23.38;12.95;;;13.80;99.90;;;;;;5050100;28;20036;-66
2023/10/10 07:06:54;;;;;;;21.55;12.35;;;13.90;99.90;;;;;;5071837;28;20507;-66
2023/10/10 07:09:29;;;;;;;30.17;11.48;;;14.10;99.90;;;;;;5063899;28;20031;-66
2023/10/10 07:12:11;;;;;;;24.85;12.02;;;14.20;99.90;;;;;;5072804;28;20492;-66
2023/10/10 07:14:44;;;;;;;24.35;11.07;;;14.30;99.90;;;;;;5072333;28;20032;-66
2023/10/10 07:17:13;;;;;;;23.37;11.57;;;14.40;99.90;;;;;;5074096;28;20036;-66
2023/10/10 07:22:25;;;;;;;24.48;12.20;;;14.30;99.90;;;;;;5073474;28;20035;-66
2023/10/10 07:24:55;;;;;;;24.08;12.40;;;14.40;99.90;;;;;;5071684;28;20032;-68
2023/10/10 07:27:30;;;;;;;21.70;11.68;;;14.50;99.90;;;;;;5087114;28;20119;-66
2023/10/10 07:32:29;;;;;;;20.17;11.32;;;14.70;99.90;;;;;;5073012;28;20162;-66
2023/10/10 07:34:55;;;;;;;23.35;10.85;;;14.70;99.90;;;;;;5071277;28;20024;-66
2023/10/10 07:37:27;;;;;;;19.88;9.73;;;14.90;99.90;;;;;;5069841;28;20494;-66
2023/10/10 07:39:57;;;;;;;27.03;13.83;;;15.00;99.90;;;;;;5064086;28;20047;-66
2023/10/10 07:42:27;;;;;;;26.33;11.70;;;15.10;99.90;;;;;;5066950;28;20025;-66
2023/10/10 07:45:14;;;;;;;17.88;8.93;;;15.20;99.90;;;;;;5067611;28;20024;-66
2023/10/10 07:50:26;;;;;;;15.15;9.52;;;15.50;99.90;;;;;;5072688;28;20028;-66
2023/10/10 07:52:55;;;;;;;19.20;9.70;;;15.70;99.90;;;;;;5071529;28;20028;-67
2023/10/10 07:55:32;;;;;;;18.58;8.60;;;15.70;99.90;;;;;;5068998;28;20082;-66
2023/10/10 07:58:06;;;;;;;17.17;8.85;;;15.80;99.90;;;;;;5070282;28;20086;-67
2023/10/10 08:00:39;;;;;;;17.35;8.50;;;16.10;99.90;;;;;;5070044;28;20031;-66
2023/10/10 08:03:06;;;;;;;20.50;8.82;;;16.00;99.90;;;;;;5046263;28;20977;-66
2023/10/10 08:05:33;;;;;;;17.42;7.45;;;16.00;99.90;;;;;;5068683;28;20039;-67
2023/10/10 08:08:04;;;;;;;14.43;7.55;;;16.10;99.90;;;;;;5069561;28;20440;-67
2023/10/10 08:10:39;;;;;;;15.45;8.32;;;16.20;99.90;;;;;;5064541;28;20021;-66
2023/10/10 08:13:11;;;;;;;18.27;8.30;;;16.20;99.90;;;;;;5065099;28;20039;-67
2023/10/10 08:15:51;;;;;;;15.85;8.05;;;16.30;99.90;;;;;;5071133;28;20082;-67
2023/10/10 08:23:31;;;;;;;14.32;6.95;;;16.60;99.90;;;;;;5070032;28;20448;-66
2023/10/10 08:25:57;;;;;;;14.20;7.40;;;16.60;99.90;;;;;;5070407;28;20028;-66
2023/10/10 08:28:24;;;;;;;15.63;7.68;;;16.60;99.90;;;;;;5070200;28;20048;-67
2023/10/10 08:30:50;;;;;;;16.95;8.20;;;16.70;99.90;;;;;;5071667;28;20021;-66
2023/10/10 08:33:16;;;;;;;15.57;8.68;;;16.80;99.90;;;;;;5066984;28;20043;-66
2023/10/10 08:35:42;;;;;;;12.70;7.13;;;16.90;99.90;;;;;;5073224;28;20058;-66
2023/10/10 08:38:13;;;;;;;14.05;6.05;;;17.00;99.90;;;;;;5069625;28;20024;-66
2023/10/10 08:40:42;;;;;;;14.70;6.82;;;17.10;99.90;;;;;;5081095;28;20060;-66
2023/10/10 08:43:09;;;;;;;14.63;7.13;;;17.30;99.90;;;;;;5070543;28;20032;-67
2023/10/10 08:45:39;;;;;;;13.50;6.90;;;17.40;99.90;;;;;;5070541;28;20048;-66
2023/10/10 08:48:12;;;;;;;16.13;7.43;;;17.40;99.90;;;;;;5065662;28;20107;-66
2023/10/10 08:50:42;;;;;;;15.18;6.88;;;17.50;99.90;;;;;;5065984;28;20032;-66
2023/10/10 08:53:14;;;;;;;14.70;6.82;;;17.80;99.90;;;;;;5070452;28;20401;-67
2023/10/10 08:55:41;;;;;;;16.85;7.68;;;17.90;99.90;;;;;;5070570;28;20039;-66
2023/10/10 08:58:07;;;;;;;15.57;6.82;;;18.10;99.90;;;;;;5071117;28;20128;-67
2023/10/10 09:00:34;;;;;;;14.95;5.90;;;18.20;99.90;;;;;;5070835;28;20032;-66
2023/10/10 09:03:00;;;;;;;10.90;5.88;;;18.50;99.90;;;;;;5050203;27;20020;-66
2023/10/10 09:05:29;;;;;;;15.65;5.40;;;19.20;99.90;;;;;;5068016;28;20040;-67
2023/10/10 09:08:05;;;;;;;13.75;5.15;;;19.60;99.90;;;;;;5062091;28;20359;-66
2023/10/10 09:10:39;;;;;;;8.65;5.18;;;20.10;99.90;;;;;;5069221;28;20028;-67
2023/10/10 09:13:07;;;;;;;10.85;5.43;;;20.30;99.90;;;;;;5064430;28;20032;-67
2023/10/10 09:15:34;;;;;;;8.60;4.75;;;20.60;99.90;;;;;;5064367;28;20039;-67
2023/10/10 09:18:14;;;;;;;10.80;5.63;;;20.60;99.90;;;;;;5067309;28;20108;-67
2023/10/10 09:20:40;;;;;;;9.55;4.65;;;20.90;99.90;;;;;;5067424;28;20085;-66
2023/10/10 09:23:23;;;;;;;11.38;5.38;;;20.70;99.90;;;;;;5067059;28;20024;-67
2023/10/10 09:26:09;;;;;;;10.50;5.15;;;20.70;99.90;;;;;;5064721;28;20031;-67
2023/10/10 09:28:46;;;;;;;10.02;4.65;;;20.60;99.90;;;;;;5068879;28;20111;-67
2023/10/10 09:31:20;;;;;;;8.38;4.40;;;20.80;99.90;;;;;;5061567;28;20497;-66
2023/10/10 09:33:47;;;;;;;15.85;5.00;;;20.90;99.90;;;;;;5057278;28;20071;-66
2023/10/10 09:36:19;;;;;;;9.27;4.40;;;20.90;99.90;;;;;;5070384;28;20017;-66
2023/10/10 09:38:53;;;;;;;9.43;4.35;;;20.50;99.90;;;;;;5064487;28;20028;-67
2023/10/10 09:42:00;;;;;;;10.00;4.80;;;20.40;99.90;;;;;;5066985;28;20060;-66
2023/10/10 09:47:17;;;;;;;10.32;4.00;;;20.90;99.90;;;;;;5066921;28;20547;-67
2023/10/10 09:55:25;;;;;;;8.63;4.03;;;21.20;99.90;;;;;;5060312;28;20082;-67
2023/10/10 09:58:00;;;;;;;11.02;4.35;;;21.50;99.90;;;;;;5082980;28;20020;-66
2023/10/10 10:00:35;;;;;;;11.60;3.90;;;21.40;99.90;;;;;;5070832;28;20438;-66
2023/10/10 10:03:25;;;;;;;9.35;4.13;;;21.20;99.90;;;;;;5046276;28;20028;-67
2023/10/10 10:05:58;;;;;;;8.02;3.67;;;21.40;99.90;;;;;;5063983;28;20025;-67
2023/10/10 10:08:37;;;;;;;9.75;4.35;;;21.30;99.90;;;;;;5084567;28;20528;-66
2023/10/10 10:11:19;;;;;;;7.80;3.47;;;21.20;99.90;;;;;;5067054;28;20024;-66
2023/10/10 10:14:14;;;;;;;6.07;3.45;;;21.40;99.90;;;;;;5068379;28;20509;-66
2023/10/10 10:17:12;;;;;;;8.38;4.55;;;21.50;99.90;;;;;;5067932;28;20032;-66
2023/10/10 10:19:47;;;;;;;10.95;4.03;;;21.60;99.90;;;;;;5063980;28;20020;-66
2023/10/10 10:22:17;;;;;;;6.68;3.92;;;21.50;99.90;;;;;;5063133;28;20490;-67
2023/10/10 10:24:45;;;;;;;9.45;4.28;;;21.50;99.90;;;;;;5063217;28;20028;-67
2023/10/10 10:27:39;;;;;;;9.00;3.72;;;21.60;99.90;;;;;;5067943;28;20024;-67
2023/10/10 10:30:35;;;;;;;;;;;21.70;99.90;;;;;;5061994;28;20040;-66
2023/10/10 10:32:58;;;;;;;10.38;4.03;;;21.70;99.90;;;;;;5064132;28;20045;-68
2023/10/10 10:35:45;;;;;;;7.60;3.70;;;21.80;99.90;;;;;;5063392;28;20107;-66
2023/10/10 10:38:11;;;;;;;10.63;4.40;;;21.90;99.90;;;;;;5061899;28;20101;-67
2023/10/10 10:43:05;;;;;;;9.88;3.88;;;21.80;99.90;;;;;;5067650;28;20287;-66
2023/10/10 10:45:41;;;;;;;12.90;4.57;;;21.90;99.90;;;;;;5064747;28;20024;-66
2023/10/10 10:48:09;;;;;;;10.20;3.95;;;21.90;99.90;;;;;;5062933;28;20021;-67
2023/10/10 10:50:40;;;;;;;9.10;3.92;;;22.00;99.90;;;;;;5068090;28;20031;-67
2023/10/10 10:53:31;;;;;;;6.50;3.58;;;21.90;99.90;;;;;;5062886;28;20116;-67
2023/10/10 11:01:28;;;;;;;6.95;4.05;;;22.00;99.90;;;;;;5068541;28;20024;-66
2023/10/10 11:03:55;;;;;;;8.77;4.00;;;21.80;99.90;;;;;;5042841;28;20132;-67
2023/10/10 11:06:24;;;;;;;9.07;3.92;;;21.70;99.90;;;;;;5061666;28;20076;-67
2023/10/10 11:11:36;;;;;;;11.65;4.47;;;21.70;99.90;;;;;;5067811;28;20444;-67
2023/10/10 11:14:19;;;;;;;8.10;3.28;;;21.80;99.90;;;;;;5064047;28;20413;-68
2023/10/10 11:16:46;;;;;;;8.33;4.27;;;21.80;99.90;;;;;;5065985;28;20028;-67
2023/10/10 11:21:49;;;;;;;8.52;4.05;;;21.80;99.90;;;;;;5064396;28;20074;-66
2023/10/10 11:24:25;;;;;;;9.43;3.70;;;21.80;99.90;;;;;;5069584;28;20497;-67
2023/10/10 11:29:43;;;;;;;8.02;3.53;;;21.90;99.90;;;;;;5064825;28;20033;-65
2023/10/10 11:32:11;;;;;;;8.50;3.70;;;21.80;99.90;;;;;;5066438;28;20499;-65
2023/10/10 11:34:49;;;;;;;13.52;3.42;;;21.80;99.90;;;;;;5064620;28;20296;-65
2023/10/10 11:37:20;;;;;;;11.55;3.25;;;21.80;99.90;;;;;;5067311;28;20390;-65
2023/10/10 11:39:47;;;;;;;6.95;3.40;;;21.70;99.90;;;;;;5061513;28;20027;-65
2023/10/10 11:42:33;;;;;;;9.13;3.05;;;21.80;99.90;;;;;;5085493;28;20028;-65
2023/10/10 11:45:17;;;;;;;8.43;3.67;;;21.70;99.90;;;;;;5065118;28;20016;-65
2023/10/10 11:47:44;;;;;;;6.07;3.15;;;21.60;99.90;;;;;;5064243;28;20034;-65
2023/10/10 11:50:15;;;;;;;5.43;2.97;;;21.60;99.90;;;;;;5061572;28;20025;-65
2023/10/10 11:52:53;;;;;;;6.57;3.00;;;21.50;99.90;;;;;;5066025;28;20056;-65
2023/10/10 11:55:20;;;;;;;8.65;2.97;;;21.60;99.90;;;;;;5066431;28;20040;-65
2023/10/10 11:57:51;;;;;;;8.55;3.00;;;21.60;99.90;;;;;;5067646;28;20051;-65
2023/10/10 12:00:28;;;;;;;6.53;3.50;;;21.60;99.90;;;;;;5066317;28;20132;-65
2023/10/10 12:02:57;;;;;;;6.53;3.15;;;21.50;99.90;;;;;;5072178;28;20060;-65
2023/10/10 12:08:07;;;;;;;11.43;3.70;;;21.40;99.90;;;;;;5072781;28;20032;-65
2023/10/10 12:10:52;;;;;;;8.63;3.53;;;21.50;99.90;;;;;;5068261;28;20081;-65
2023/10/10 12:16:00;;;;;;;11.95;3.00;;;21.50;99.90;;;;;;5069500;28;20017;-65
2023/10/10 12:18:30;;;;;;;6.47;3.03;;;21.50;99.90;;;;;;5072007;28;20096;-65
2023/10/10 12:20:58;;;;;;;3.92;2.22;;;21.50;99.90;;;;;;5070051;28;20111;-65
2023/10/10 12:23:24;;;;;;;7.68;2.78;;;21.50;99.90;;;;;;5066306;28;20100;-65
2023/10/10 12:25:49;;;;;;;7.43;3.20;;;21.50;99.90;;;;;;5065561;28;20113;-65
2023/10/10 12:28:18;;;;;;;6.15;3.03;;;21.50;99.90;;;;;;5072850;28;20500;-65
2023/10/10 12:30:44;;;;;;;7.28;3.20;;;21.50;99.90;;;;;;5072480;28;20020;-66
2023/10/10 12:33:15;;;;;;;6.10;2.80;;;21.50;99.90;;;;;;5068710;28;20042;-65
2023/10/10 12:35:47;;;;;;;9.63;3.53;;;21.60;99.90;;;;;;5071767;28;20031;-66
2023/10/10 12:38:20;;;;;;;7.38;2.97;;;21.60;99.90;;;;;;5071118;28;20020;-65
2023/10/10 12:40:47;;;;;;;8.73;3.30;;;21.50;99.90;;;;;;5071485;28;20021;-65
2023/10/10 12:43:12;;;;;;;11.45;4.00;;;21.60;99.90;;;;;;5072265;28;20016;-65
2023/10/10 12:45:38;;;;;;;8.43;3.28;;;21.60;99.90;;;;;;5069170;28;20103;-65
2023/10/10 12:48:13;;;;;;;6.35;3.40;;;21.60;99.90;;;;;;5067020;28;20028;-65
2023/10/10 12:50:39;;;;;;;8.02;3.05;;;21.60;99.90;;;;;;5073333;28;20032;-65
2023/10/10 12:53:08;;;;;;;6.43;3.47;;;21.50;99.90;;;;;;5070492;28;20060;-65
2023/10/10 12:55:36;;;;;;;4.38;2.42;;;21.50;99.90;;;;;;5069366;28;20089;-65
2023/10/10 12:58:14;;;;;;;9.15;3.00;;;21.50;99.90;;;;;;5064735;28;20028;-65
2023/10/10 13:00:42;;;;;;;10.40;3.63;;;21.50;99.90;;;;;;5068126;28;20115;-65
2023/10/10 13:03:07;;;;;;;6.47;3.40;;;21.50;99.90;;;;;;5072860;28;20552;-65
2023/10/10 13:05:33;;;;;;;7.80;3.70;;;21.50;99.90;;;;;;5065828;28;20842;-65
2023/10/10 13:07:59;;;;;;;9.68;3.40;;;21.50;99.90;;;;;;5072692;28;20500;-65
2023/10/10 13:10:30;;;;;;;6.90;2.92;;;21.60;99.90;;;;;;5067321;28;20025;-65
2023/10/10 13:12:56;;;;;;;8.32;3.17;;;21.60;99.90;;;;;;5070944;28;20549;-65
2023/10/10 13:15:29;;;;;;;5.47;2.42;;;21.60;99.90;;;;;;5072811;28;20025;-64
2023/10/10 13:18:19;;;;;;;7.57;3.28;;;21.60;99.90;;;;;;5065963;28;20493;-65
2023/10/10 13:20:47;;;;;;;8.93;2.95;;;21.60;99.90;;;;;;5065471;28;20036;-65
2023/10/10 13:23:13;;;;;;;9.02;3.35;;;21.60;99.90;;;;;;5071714;28;20027;-65
2023/10/10 13:25:39;;;;;;;9.30;3.50;;;21.60;99.90;;;;;;5066905;28;20033;-65
2023/10/10 13:28:17;;;;;;;7.90;3.10;;;21.50;99.90;;;;;;5068545;28;20020;-65
2023/10/10 13:30:46;;;;;;;8.30;3.28;;;21.60;99.90;;;;;;5079138;28;20040;-66
2023/10/10 13:33:15;;;;;;;5.70;2.90;;;21.60;99.90;;;;;;5068318;28;20032;-66
2023/10/10 13:35:45;;;;;;;8.45;3.03;;;21.60;99.90;;;;;;5064044;28;20125;-66
2023/10/10 13:38:11;;;;;;;8.50;2.72;;;21.60;99.90;;;;;;5070378;28;20066;-66
2023/10/10 13:40:48;;;;;;;9.60;2.90;;;21.50;99.90;;;;;;5068675;28;20024;-66
2023/10/10 13:43:18;;;;;;;7.32;3.38;;;21.50;99.90;;;;;;5061401;28;20073;-66
2023/10/10 13:45:45;;;;;;;9.48;3.05;;;21.50;99.90;;;;;;5069869;28;20036;-65
2023/10/10 13:48:15;;;;;;;9.77;2.78;;;21.50;99.90;;;;;;5069433;28;20027;-65
2023/10/10 13:50:41;;;;;;;5.55;2.50;;;21.50;99.90;;;;;;5070240;28;20025;-67
2023/10/10 13:53:12;;;;;;;7.63;3.13;;;21.60;99.90;;;;;;5082246;28;20032;-66
2023/10/10 13:55:39;;;;;;;9.35;3.50;;;21.60;99.90;;;;;;5063729;28;20147;-65
2023/10/10 13:58:07;;;;;;;6.80;3.97;;;21.50;99.90;;;;;;5066274;28;20027;-66
2023/10/10 14:00:41;;;;;;;6.10;2.90;;;21.50;99.90;;;;;;5071274;28;20063;-66
2023/10/10 14:03:07;;;;;;;8.20;3.45;;;21.50;99.90;;;;;;5069972;28;20016;-66
2023/10/10 14:05:37;;;;;;;9.10;3.47;;;21.50;99.90;;;;;;5065199;28;20027;-65
2023/10/10 14:08:09;;;;;;;10.43;3.08;;;21.50;99.90;;;;;;5067619;28;20021;-66
2023/10/10 14:10:41;;;;;;;11.30;2.67;;;21.40;99.90;;;;;;5067105;28;20103;-66
2023/10/10 14:13:40;;;;;;;7.70;3.00;;;21.40;99.90;;;;;;5071338;28;20082;-66
2023/10/10 14:16:00;;;;;;;7.65;2.33;;;21.40;99.90;;;;;;5067713;28;20037;-65
2023/10/10 14:18:42;;;;;;;13.43;3.65;;;21.40;99.90;;;;;;5069688;28;20115;-66
2023/10/10 14:21:12;;;;;;;7.10;3.53;;;21.40;99.90;;;;;;5070589;28;20021;-66
2023/10/10 14:23:39;;;;;;;8.93;3.33;;;21.50;99.90;;;;;;5070019;28;20082;-66
2023/10/10 14:26:18;;;;;;;6.13;2.95;;;21.40;99.90;;;;;;5068708;28;20058;-65
2023/10/10 14:28:51;;;;;;;7.80;3.38;;;21.40;99.90;;;;;;5066045;28;20031;-65
2023/10/10 14:31:22;;;;;;;7.97;2.60;;;21.40;99.90;;;;;;5071148;28;20031;-65
2023/10/10 14:33:51;;;;;;;7.05;2.85;;;21.30;99.90;;;;;;5066647;28;20029;-66
2023/10/10 14:36:17;;;;;;;7.22;3.13;;;21.30;99.90;;;;;;5068120;28;20107;-65
2023/10/10 14:38:47;;;;;;;6.22;3.28;;;21.30;99.90;;;;;;5068828;28;20059;-66
2023/10/10 14:41:22;;;;;;;8.43;3.58;;;21.20;99.90;;;;;;5024373;28;20132;-66
2023/10/10 14:43:59;;;;;;;18.90;3.35;;;21.20;99.90;;;;;;5086748;28;20035;-65
2023/10/10 14:46:31;;;;;;;7.05;2.80;;;21.20;99.90;;;;;;5068152;28;20082;-66
2023/10/10 14:49:00;;;;;;;12.07;3.30;;;21.20;99.90;;;;;;5068458;28;20032;-66
2023/10/10 14:51:34;;;;;;;9.05;3.08;;;21.10;99.90;;;;;;5069966;28;20047;-66
2023/10/10 14:54:06;;;;;;;7.15;3.08;;;21.10;99.90;;;;;;5063477;28;20366;-65
2023/10/10 14:56:36;;;;;;;9.88;3.00;;;21.10;99.90;;;;;;5066836;28;20020;-66
2023/10/10 14:59:04;;;;;;;6.32;2.95;;;21.00;99.90;;;;;;5068140;28;20031;-65
2023/10/10 15:01:34;;;;;;;5.45;2.58;;;21.00;99.90;;;;;;5070831;28;20047;-66
2023/10/10 15:04:05;;;;;;;6.07;2.67;;;20.90;99.90;;;;;;5069709;28;20481;-65
2023/10/10 15:06:34;;;;;;;10.45;3.78;;;20.90;99.90;;;;;;5069619;28;20589;-65
2023/10/10 15:09:01;;;;;;;6.20;2.88;;;20.90;99.90;;;;;;5065034;28;20470;-65
2023/10/10 15:11:30;;;;;;;9.38;2.88;;;20.70;99.90;;;;;;5067371;28;20025;-66
2023/10/10 15:13:58;;;;;;;6.85;2.83;;;20.70;99.90;;;;;;5063383;28;20025;-65
2023/10/10 15:16:27;;;;;;;5.88;3.70;;;20.70;99.90;;;;;;5070167;28;20023;-65
2023/10/10 15:18:53;;;;;;;8.82;3.25;;;20.60;99.90;;;;;;5068467;28;20074;-65
2023/10/10 15:21:32;;;;;;;11.48;2.95;;;20.50;99.90;;;;;;5068474;28;20486;-65
2023/10/10 15:23:58;;;;;;;8.00;3.42;;;20.50;99.90;;;;;;5070295;28;20512;-65
2023/10/10 15:26:24;;;;;;;15.50;3.45;;;20.40;99.90;;;;;;5085914;28;20029;-66
2023/10/10 15:28:52;;;;;;;6.18;2.80;;;20.30;99.90;;;;;;5071470;28;20035;-65
2023/10/10 15:31:19;;;;;;;10.52;3.55;;;20.30;99.90;;;;;;5069496;28;20017;-66
2023/10/10 15:33:47;;;;;;;11.50;3.25;;;20.20;99.90;;;;;;5071827;28;20055;-65
2023/10/10 15:36:13;;;;;;;8.75;3.38;;;20.20;99.90;;;;;;5085428;28;20067;-65
2023/10/10 15:38:38;;;;;;;10.13;3.35;;;20.20;99.90;;;;;;5071535;28;20118;-65
2023/10/10 15:41:19;;;;;;;11.98;3.05;;;20.20;99.90;;;;;;5068671;28;20024;-65
2023/10/10 15:43:48;;;;;;;11.32;3.50;;;20.10;99.90;;;;;;5067252;28;20032;-66
2023/10/10 15:46:19;;;;;;;7.60;3.08;;;20.10;99.90;;;;;;5071015;28;20024;-66
2023/10/10 15:48:52;;;;;;;7.20;3.58;;;20.00;99.90;;;;;;5072694;28;20111;-65
2023/10/10 15:51:21;;;;;;;7.38;3.15;;;20.00;99.90;;;;;;5069112;28;20021;-65
2023/10/10 15:53:48;;;;;;;10.02;3.80;;;19.90;99.90;;;;;;5070165;28;20091;-65
2023/10/10 15:56:15;;;;;;;8.82;2.92;;;19.80;99.90;;;;;;5071133;28;20370;-65
2023/10/10 15:58:49;;;;;;;13.73;3.90;;;19.80;99.90;;;;;;5073704;28;20013;-65
2023/10/10 16:01:21;;;;;;;10.32;3.33;;;19.70;99.90;;;;;;5071976;28;20024;-65
2023/10/10 16:03:51;;;;;;;9.80;3.70;;;19.60;99.90;;;;;;5070047;28;20042;-65
2023/10/10 16:06:18;;;;;;;9.32;3.17;;;19.60;99.90;;;;;;5055692;28;20429;-65
2023/10/10 16:08:49;;;;;;;8.93;3.60;;;19.60;99.90;;;;;;5071125;28;20031;-65
2023/10/10 16:11:15;;;;;;;7.63;3.25;;;19.50;99.90;;;;;;5070956;28;20024;-65